Flight Track Log - Related Links

Times and Time Zones

All times are in EDT time to prevent confusion due to time zone crossing. See the AWE21 flight status page for this flight to view local times or setup timezone preferences in your user account.

Time Position Orientation Groundspeed Altitude Reporting Facility
EDT Latitude Longitude Course Direction KTS MPH feet Rate Location/Type
Wed 03:23:00 AM 21.3167 -157.8833 163° South 180 207 1,000  Level Honolulu Center
Wed 03:24:00 AM 21.2667 -157.8667 163° South 230 265 2,300 1,600 Climbing Honolulu Center
Wed 03:25:00 AM 21.2000 -157.8333 155° Southeast 260 299 4,200 2,033 Climbing Honolulu Center
Wed 03:26:01 AM 21.1667 -157.7667 118° Southeast 280 322 6,400 2,083 Climbing Honolulu Center
Wed 03:27:01 AM 21.1833 -157.6833 78° East 280 322 8,400 1,900 Climbing Honolulu Center
Wed 03:28:01 AM 21.2000 -157.6000 78° East 290 334 10,200 1,339 Climbing Honolulu Center
Wed 03:29:02 AM 21.2000 -157.5000 90° East 340 391 11,100 1,091 Climbing Honolulu Center
Wed 03:30:02 AM 21.2167 -157.3833 81° East 380 437 12,400 1,500 Climbing Honolulu Center
Wed 03:31:02 AM 21.2333 -157.2667 81° East 390 449 14,100 1,636 Climbing Honolulu Center
Wed 03:32:03 AM 21.2500 -157.1500 81° East 400 460 15,700 1,537 Climbing Honolulu Center
Wed 03:33:03 AM 21.2667 -157.0333 81° East 410 472 17,200 1,400 Climbing Honolulu Center
Wed 03:34:03 AM 21.2833 -156.9000 82° East 420 483 18,500 1,190 Climbing Honolulu Center
Wed 03:35:04 AM 21.3000 -156.7667 82° East 440 506 19,600 1,140 Climbing Honolulu Center
Wed 03:36:04 AM 21.3167 -156.6500 81° East 440 506 20,800 1,240 Climbing Honolulu Center
Wed 03:37:05 AM 21.3333 -156.5167 82° East 450 518 22,100 1,140 Climbing Honolulu Center
Wed 03:38:05 AM 21.3500 -156.3833 82° East 450 518 23,100 1,050 Climbing Honolulu Center
Wed 03:39:05 AM 21.3667 -156.2333 83° East 460 529 24,200 942 Climbing Honolulu Center
Wed 03:40:06 AM 21.3833 -156.1000 82° East 460 529 25,000 893 Climbing Honolulu Center
Wed 03:41:06 AM 21.4000 -155.9500 83° East 480 552 26,000 1,000 Climbing Honolulu Center
Wed 03:42:06 AM 21.4167 -155.8333 81° East 490 564 27,000 942 Climbing Honolulu Center
Wed 03:43:07 AM 21.4500 -155.6833 77° East 500 575 27,900 843 Climbing Honolulu Center
Wed 03:44:07 AM 21.5000 -155.5500 68° East 510 587 28,700 1,091 Climbing Honolulu Center
Wed 03:45:08 AM 21.5333 -155.4000 77° East 510 587 30,100 1,289 Climbing Honolulu Center
Wed 03:46:08 AM 21.5667 -155.2500 77° East 500 575 31,300 1,200 Climbing Honolulu Center
Wed 03:47:08 AM 21.6000 -155.1000 77° East 500 575 32,500 1,140 Climbing Honolulu Center
Wed 03:48:09 AM 21.6333 -154.9500 77° East 510 587 33,600 1,041 Climbing Honolulu Center
Wed 03:49:09 AM 21.6667 -154.8167 75° East 500 575 34,600 700 Climbing Honolulu Center
Wed 03:50:09 AM 21.7000 -154.6667 77° East 500 575 35,000 198 Climbing Honolulu Center
Wed 03:51:10 AM 21.7333 -154.5167 77° East 510 587 35,000  Level Honolulu Center
Wed 03:52:10 AM 21.7667 -154.3667 77° East 500 575 35,000  Level Honolulu Center
Wed 03:53:10 AM 21.8000 -154.2333 75° East 500 575 35,000  Level Honolulu Center
Wed 03:54:11 AM 21.8333 -154.0833 77° East 500 575 35,000  Level Honolulu Center
Wed 03:55:11 AM 21.8833 -153.9333 70° East 510 587 35,000  Level Honolulu Center
Wed 03:56:12 AM 21.9167 -153.7667 78° East 490 564 35,000  Level Honolulu Center
Wed 03:57:12 AM 21.9500 -153.6333 75° East 500 575 35,000  Level Honolulu Center
Wed 03:58:12 AM 21.9833 -153.4833 76° East 490 564 35,000  Level Honolulu Center
Wed 04:00:00 AM 22.0407 -153.2316 76° East  Level FlightAware Approximate
Wed 04:07:00 AM 22.2602 -152.2505 76° East  Level FlightAware Approximate
Wed 04:08:00 AM 22.2910 -152.1102 77° East  Level FlightAware Approximate
Wed 04:09:00 AM 22.3218 -151.9697 77° East  Level FlightAware Approximate
Wed 04:10:00 AM 22.3578 -151.8333 62° Northeast  Level FlightAware Approximate
Wed 04:11:00 AM 22.4203 -151.7057 62° Northeast  Level FlightAware Approximate
Wed 04:11:50 AM 22.3500 -151.8833 62° Northeast 500 575 35,000  Level Oakland Oceanic (ODAPS)
Wed 04:12:00 AM 22.4827 -151.5779 62° Northeast  Level FlightAware Approximate
Wed 04:13:00 AM 22.5455 -151.4489 62° Northeast  Level FlightAware Approximate
Wed 04:14:00 AM 22.6082 -151.3197 62° Northeast  Level FlightAware Approximate
Wed 04:15:00 AM 22.6709 -151.1903 62° Northeast  Level FlightAware Approximate
Wed 04:16:00 AM 22.7334 -151.0609 62° Northeast  Level FlightAware Approximate
Wed 04:17:00 AM 22.7958 -150.9314 62° Northeast  Level FlightAware Approximate
Wed 04:18:00 AM 22.9956 -150.5526 63° Northeast 500 575 35,000  Level FlightAware Transoceanic
Wed 04:19:00 AM 23.0596 -150.4189 63° Northeast 500 575 35,000  Level FlightAware Transoceanic
Wed 04:20:00 AM 23.1234 -150.2850 63° Northeast 500 575 35,000  Level FlightAware Transoceanic
Wed 04:21:00 AM 23.1872 -150.1510 63° Northeast 500 575 35,000  Level FlightAware Transoceanic
Wed 04:22:00 AM 23.2508 -150.0168 63° Northeast 500 575 35,000  Level FlightAware Transoceanic
Wed 04:23:00 AM 23.3143 -149.8825 63° Northeast 500 575 35,000  Level FlightAware Transoceanic
Wed 04:24:00 AM 23.3777 -149.7481 63° Northeast 500 575 35,000  Level FlightAware Transoceanic
Wed 04:25:00 AM 23.4409 -149.6136 63° Northeast 500 575 35,000  Level FlightAware Transoceanic
Wed 04:26:00 AM 23.5041 -149.4789 63° Northeast 500 575 35,000  Level FlightAware Transoceanic
Wed 04:27:00 AM 23.5671 -149.3442 63° Northeast 500 575 35,000  Level FlightAware Transoceanic
Wed 04:28:00 AM 23.6301 -149.2092 63° Northeast 500 575 35,000  Level FlightAware Transoceanic
Wed 04:29:00 AM 23.6929 -149.0742 63° Northeast 500 575 35,000  Level FlightAware Transoceanic
Wed 04:30:00 AM 23.7556 -148.9390 63° Northeast 500 575 35,000  Level FlightAware Transoceanic
Wed 04:31:00 AM 23.8181 -148.8037 63° Northeast 500 575 35,000  Level FlightAware Transoceanic
Wed 04:32:00 AM 23.8806 -148.6683 63° Northeast 500 575 35,000  Level FlightAware Transoceanic
Wed 04:33:00 AM 23.9429 -148.5327 63° Northeast 500 575 35,000  Level FlightAware Transoceanic
Wed 04:34:00 AM 24.0051 -148.3970 63° Northeast 500 575 35,000  Level FlightAware Transoceanic
Wed 04:35:00 AM 24.0672 -148.2612 63° Northeast 500 575 35,000  Level FlightAware Transoceanic
Wed 04:36:00 AM 24.1292 -148.1252 63° Northeast 500 575 35,000  Level FlightAware Transoceanic
Wed 04:37:00 AM 24.1911 -147.9891 64° Northeast 500 575 35,000  Level FlightAware Transoceanic
Wed 04:38:00 AM 24.2528 -147.8529 64° Northeast 500 575 35,000  Level FlightAware Transoceanic
Wed 04:39:00 AM 24.3144 -147.7166 64° Northeast 500 575 35,000  Level FlightAware Transoceanic
Wed 04:40:00 AM 24.3759 -147.5801 64° Northeast 500 575 35,000  Level FlightAware Transoceanic
Wed 04:41:00 AM 24.4373 -147.4434 64° Northeast 500 575 35,000  Level FlightAware Transoceanic
Wed 04:42:00 AM 24.4985 -147.3067 64° Northeast 500 575 35,000  Level FlightAware Transoceanic
Wed 04:43:00 AM 24.5596 -147.1698 64° Northeast 500 575 35,000  Level FlightAware Transoceanic
Wed 04:44:00 AM 24.6206 -147.0328 64° Northeast 500 575 35,000  Level FlightAware Transoceanic
Wed 04:45:00 AM 24.6815 -146.8956 64° Northeast 500 575 35,000  Level FlightAware Transoceanic
Wed 04:46:00 AM 24.7423 -146.7583 64° Northeast 500 575 35,000  Level FlightAware Transoceanic
Wed 04:47:00 AM 24.8029 -146.6209 64° Northeast 500 575 35,000  Level FlightAware Transoceanic
Wed 04:48:00 AM 24.8634 -146.4834 64° Northeast 500 575 35,000  Level FlightAware Transoceanic
Wed 04:49:00 AM 24.9238 -146.3457 64° Northeast 500 575 35,000  Level FlightAware Transoceanic
Wed 04:50:00 AM 24.9840 -146.2078 64° Northeast 500 575 35,000  Level FlightAware Transoceanic
Wed 04:51:00 AM 25.0441 -146.0699 64° Northeast 500 575 35,000  Level FlightAware Transoceanic
Wed 04:52:00 AM 25.1041 -145.9318 64° Northeast 500 575 35,000  Level FlightAware Transoceanic
Wed 04:53:00 AM 25.1640 -145.7935 64° Northeast 500 575 35,000  Level FlightAware Transoceanic
Wed 04:54:00 AM 25.2237 -145.6552 65° Northeast 500 575 35,000  Level FlightAware Transoceanic
Wed 04:55:00 AM 25.2833 -145.5167 65° Northeast 500 575 35,000  Level FlightAware Transoceanic
Wed 04:56:00 AM 25.3425 -145.3780 65° Northeast 500 575 35,000  Level FlightAware Transoceanic
Wed 04:57:00 AM 25.4016 -145.2392 65° Northeast 500 575 35,000  Level FlightAware Transoceanic
Wed 04:57:57 AM 25.2833 -145.5167 65° Northeast 509 586 35,000  Level Oakland Oceanic (ODAPS)
Wed 04:58:00 AM 25.4605 -145.1003 65° Northeast 500 575 35,000  Level FlightAware Transoceanic
Wed 04:59:00 AM 25.5193 -144.9612 65° Northeast 500 575 35,000  Level FlightAware Transoceanic
Wed 05:00:00 AM 25.5779 -144.8220 65° Northeast 500 575 35,000  Level FlightAware Transoceanic
Wed 05:01:00 AM 25.6365 -144.6826 65° Northeast 500 575 35,000  Level FlightAware Transoceanic
Wed 05:02:00 AM 25.6949 -144.5431 65° Northeast 500 575 35,000  Level FlightAware Transoceanic
Wed 05:03:00 AM 25.7531 -144.4035 65° Northeast 500 575 35,000  Level FlightAware Transoceanic
Wed 05:04:00 AM 25.8226 -144.2364 65° Northeast 509 586 35,000  Level FlightAware Transoceanic
Wed 05:05:00 AM 25.8818 -144.0934 65° Northeast 509 586 35,000  Level FlightAware Transoceanic
Wed 05:06:00 AM 25.9409 -143.9503 65° Northeast 509 586 35,000  Level FlightAware Transoceanic
Wed 05:07:00 AM 25.9999 -143.8071 65° Northeast 509 586 35,000  Level FlightAware Transoceanic
Wed 05:08:00 AM 26.0587 -143.6637 66° East 509 586 35,000  Level FlightAware Transoceanic
Wed 05:09:00 AM 26.1173 -143.5201 66° East 509 586 35,000  Level FlightAware Transoceanic
Wed 05:10:00 AM 26.1759 -143.3764 66° East 509 586 35,000  Level FlightAware Transoceanic
Wed 05:11:00 AM 26.2342 -143.2326 66° East 509 586 35,000  Level FlightAware Transoceanic
Wed 05:12:00 AM 26.2925 -143.0886 66° East 509 586 35,000  Level FlightAware Transoceanic
Wed 05:13:00 AM 26.3506 -142.9445 66° East 509 586 35,000  Level FlightAware Transoceanic
Wed 05:14:00 AM 26.4085 -142.8002 66° East 509 586 35,000  Level FlightAware Transoceanic
Wed 05:15:00 AM 26.4663 -142.6558 66° East 509 586 35,000  Level FlightAware Transoceanic
Wed 05:16:00 AM 26.5240 -142.5113 66° East 509 586 35,000  Level FlightAware Transoceanic
Wed 05:17:00 AM 26.5815 -142.3666 66° East 509 586 35,000  Level FlightAware Transoceanic
Wed 05:18:00 AM 26.6389 -142.2217 66° East 509 586 35,000  Level FlightAware Transoceanic
Wed 05:19:00 AM 26.6961 -142.0768 66° East 509 586 35,000  Level FlightAware Transoceanic
Wed 05:20:00 AM 26.7532 -141.9316 66° East 509 586 35,000  Level FlightAware Transoceanic
Wed 05:21:00 AM 26.8101 -141.7863 66° East 509 586 35,000  Level FlightAware Transoceanic
Wed 05:22:00 AM 26.8668 -141.6409 66° East 509 586 35,000  Level FlightAware Transoceanic
Wed 05:23:00 AM 26.9235 -141.4953 66° East 509 586 35,000  Level FlightAware Transoceanic
Wed 05:24:00 AM 26.9799 -141.3496 67° East 509 586 35,000  Level FlightAware Transoceanic
Wed 05:25:00 AM 27.0363 -141.2038 67° East 509 586 35,000  Level FlightAware Transoceanic
Wed 05:26:00 AM 27.0924 -141.0578 67° East 509 586 35,000  Level FlightAware Transoceanic
Wed 05:27:00 AM 27.1485 -140.9116 67° East 509 586 35,000  Level FlightAware Transoceanic
Wed 05:28:00 AM 27.2043 -140.7653 67° East 509 586 35,000  Level FlightAware Transoceanic
Wed 05:29:00 AM 27.2601 -140.6189 67° East 509 586 35,000  Level FlightAware Transoceanic
Wed 05:30:00 AM 27.3156 -140.4722 67° East 509 586 35,000  Level FlightAware Transoceanic
Wed 05:31:00 AM 27.3710 -140.3255 67° East 509 586 35,000  Level FlightAware Transoceanic
Wed 05:32:00 AM 27.4263 -140.1786 67° East 509 586 35,000  Level FlightAware Transoceanic
Wed 05:33:00 AM 27.4814 -140.0316 67° East 509 586 35,000  Level FlightAware Transoceanic
Wed 05:34:00 AM 27.5364 -139.8844 67° East 509 586 35,000  Level FlightAware Transoceanic
Wed 05:35:00 AM 27.5912 -139.7371 67° East 509 586 35,000  Level FlightAware Transoceanic
Wed 05:36:00 AM 27.6458 -139.5896 67° East 509 586 35,000  Level FlightAware Transoceanic
Wed 05:37:00 AM 27.7003 -139.4420 67° East 509 586 35,000  Level FlightAware Transoceanic
Wed 05:38:00 AM 27.7546 -139.2942 67° East 509 586 35,000  Level FlightAware Transoceanic
Wed 05:39:00 AM 27.8088 -139.1463 68° East 509 586 35,000  Level FlightAware Transoceanic
Wed 05:40:00 AM 27.8628 -138.9982 68° East 509 586 35,000  Level FlightAware Transoceanic
Wed 05:41:00 AM 27.9167 -138.8500 68° East 509 586 35,000  Level FlightAware Transoceanic
Wed 05:42:00 AM 27.9677 -138.7089 68° East 509 586 35,000  Level FlightAware Transoceanic
Wed 05:43:00 AM 28.0186 -138.5677 68° East 509 586 35,000  Level FlightAware Transoceanic
Wed 05:44:00 AM 28.0693 -138.4264 68° East 509 586 35,000  Level FlightAware Transoceanic
Wed 05:44:00 AM 27.9167 -138.8500 68° East 495 570 35,000  Level Oakland Oceanic (ODAPS)
Wed 05:45:00 AM 28.1199 -138.2849 68° East 509 586 35,000  Level FlightAware Transoceanic
Wed 05:46:00 AM 28.1704 -138.1433 68° East 509 586 35,000  Level FlightAware Transoceanic
Wed 05:47:00 AM 28.2207 -138.0016 68° East 509 586 35,000  Level FlightAware Transoceanic
Wed 05:48:00 AM 28.2709 -137.8597 68° East 509 586 35,000  Level FlightAware Transoceanic
Wed 05:49:00 AM 28.3209 -137.7177 68° East 509 586 35,000  Level FlightAware Transoceanic
Wed 05:50:00 AM 28.3799 -137.5494 68° East 495 570 35,000  Level FlightAware Transoceanic
Wed 05:51:00 AM 28.4306 -137.4042 68° East 495 570 35,000  Level FlightAware Transoceanic
Wed 05:52:00 AM 28.4812 -137.2589 68° East 495 570 35,000  Level FlightAware Transoceanic
Wed 05:53:00 AM 28.5316 -137.1134 69° East 495 570 35,000  Level FlightAware Transoceanic
Wed 05:54:00 AM 28.5818 -136.9678 69° East 495 570 35,000  Level FlightAware Transoceanic
Wed 05:55:00 AM 28.6319 -136.8220 69° East 495 570 35,000  Level FlightAware Transoceanic
Wed 05:56:00 AM 28.6818 -136.6761 69° East 495 570 35,000  Level FlightAware Transoceanic
Wed 05:57:00 AM 28.7316 -136.5301 69° East 495 570 35,000  Level FlightAware Transoceanic
Wed 05:58:00 AM 28.7812 -136.3839 69° East 495 570 35,000  Level FlightAware Transoceanic
Wed 05:59:00 AM 28.8307 -136.2376 69° East 495 570 35,000  Level FlightAware Transoceanic
Wed 06:00:00 AM 28.8800 -136.0912 69° East 495 570 35,000  Level FlightAware Transoceanic
Wed 06:01:00 AM 28.9291 -135.9446 69° East 495 570 35,000  Level FlightAware Transoceanic
Wed 06:02:00 AM 28.9781 -135.7979 69° East 495 570 35,000  Level FlightAware Transoceanic
Wed 06:03:00 AM 29.0270 -135.6510 69° East 495 570 35,000  Level FlightAware Transoceanic
Wed 06:04:00 AM 29.0756 -135.5040 69° East 495 570 35,000  Level FlightAware Transoceanic
Wed 06:05:00 AM 29.1241 -135.3568 69° East 495 570 35,000  Level FlightAware Transoceanic
Wed 06:06:00 AM 29.1725 -135.2095 69° East 495 570 35,000  Level FlightAware Transoceanic
Wed 06:07:00 AM 29.2207 -135.0621 70° East 495 570 35,000  Level FlightAware Transoceanic
Wed 06:08:00 AM 29.2687 -134.9146 70° East 495 570 35,000  Level FlightAware Transoceanic
Wed 06:09:00 AM 29.3166 -134.7669 70° East 495 570 35,000  Level FlightAware Transoceanic
Wed 06:10:00 AM 29.3643 -134.6190 70° East 495 570 35,000  Level FlightAware Transoceanic
Wed 06:11:00 AM 29.4118 -134.4711 70° East 495 570 35,000  Level FlightAware Transoceanic
Wed 06:12:00 AM 29.4592 -134.3229 70° East 495 570 35,000  Level FlightAware Transoceanic
Wed 06:13:00 AM 29.5064 -134.1747 70° East 495 570 35,000  Level FlightAware Transoceanic
Wed 06:14:00 AM 29.5534 -134.0263 70° East 495 570 35,000  Level FlightAware Transoceanic
Wed 06:15:00 AM 29.6003 -133.8778 70° East 495 570 35,000  Level FlightAware Transoceanic
Wed 06:16:00 AM 29.6470 -133.7291 70° East 495 570 35,000  Level FlightAware Transoceanic
Wed 06:17:00 AM 29.6936 -133.5803 70° East 495 570 35,000  Level FlightAware Transoceanic
Wed 06:18:00 AM 29.7399 -133.4313 70° East 495 570 35,000  Level FlightAware Transoceanic
Wed 06:19:00 AM 29.7861 -133.2823 70° East 495 570 35,000  Level FlightAware Transoceanic
Wed 06:20:00 AM 29.8322 -133.1330 70° East 495 570 35,000  Level FlightAware Transoceanic
Wed 06:21:00 AM 29.8781 -132.9837 71° East 495 570 35,000  Level FlightAware Transoceanic
Wed 06:22:00 AM 29.9238 -132.8342 71° East 495 570 35,000  Level FlightAware Transoceanic
Wed 06:23:00 AM 29.9693 -132.6846 71° East 495 570 35,000  Level FlightAware Transoceanic
Wed 06:24:00 AM 30.0147 -132.5348 71° East 495 570 35,000  Level FlightAware Transoceanic
Wed 06:25:00 AM 30.0599 -132.3849 71° East 495 570 35,000  Level FlightAware Transoceanic
Wed 06:26:00 AM 30.1049 -132.2349 71° East 495 570 35,000  Level FlightAware Transoceanic
Wed 06:27:00 AM 30.1498 -132.0847 71° East 495 570 35,000  Level FlightAware Transoceanic
Wed 06:28:00 AM 30.1945 -131.9344 71° East 495 570 35,000  Level FlightAware Transoceanic
Wed 06:29:00 AM 30.2390 -131.7839 71° East 495 570 35,000  Level FlightAware Transoceanic
Wed 06:30:00 AM 30.2833 -131.6333 71° East 495 570 35,000  Level FlightAware Transoceanic
Wed 06:31:00 AM 30.3260 -131.4887 71° East 495 570 35,000  Level FlightAware Transoceanic
Wed 06:32:00 AM 30.3686 -131.3439 71° East 495 570 35,000  Level FlightAware Transoceanic
Wed 06:33:00 AM 30.4110 -131.1990 71° East 495 570 35,000  Level FlightAware Transoceanic
Wed 06:33:56 AM 30.2833 -131.6333 71° East 476 548 35,000  Level Oakland Oceanic (ODAPS)
Wed 06:34:00 AM 30.4532 -131.0540 71° East 495 570 35,000  Level FlightAware Transoceanic
Wed 06:35:00 AM 30.4953 -130.9088 71° East 495 570 35,000  Level FlightAware Transoceanic
Wed 06:36:00 AM 30.5372 -130.7636 72° East 495 570 35,000  Level FlightAware Transoceanic
Wed 06:37:00 AM 30.5789 -130.6182 72° East 495 570 35,000  Level FlightAware Transoceanic
Wed 06:38:00 AM 30.6205 -130.4727 72° East 495 570 35,000  Level FlightAware Transoceanic
Wed 06:39:00 AM 30.6619 -130.3270 72° East 495 570 35,000  Level FlightAware Transoceanic
Wed 06:40:00 AM 30.6619 -130.3270 72° East 476 548 35,000  Level FlightAware Transoceanic
Wed 06:41:00 AM 30.7032 -130.1812 72° East 476 548 35,000  Level FlightAware Transoceanic
Wed 06:42:00 AM 30.7443 -130.0354 72° East 476 548 35,000  Level FlightAware Transoceanic
Wed 06:43:00 AM 30.7852 -129.8893 72° East 476 548 35,000  Level FlightAware Transoceanic
Wed 06:44:00 AM 30.8260 -129.7432 72° East 476 548 35,000  Level FlightAware Transoceanic
Wed 06:45:00 AM 30.8666 -129.5969 72° East 476 548 35,000  Level FlightAware Transoceanic
Wed 06:46:00 AM 30.9071 -129.4505 72° East 476 548 35,000  Level FlightAware Transoceanic
Wed 06:47:00 AM 30.9473 -129.3040 72° East 476 548 35,000  Level FlightAware Transoceanic
Wed 06:48:00 AM 30.9874 -129.1574 72° East 476 548 35,000  Level FlightAware Transoceanic
Wed 06:49:00 AM 31.0274 -129.0106 72° East 476 548 35,000  Level FlightAware Transoceanic
Wed 06:50:00 AM 31.0672 -128.8637 72° East 476 548 35,000  Level FlightAware Transoceanic
Wed 06:51:00 AM 31.1068 -128.7167 73° East 476 548 35,000  Level FlightAware Transoceanic
Wed 06:52:00 AM 31.1462 -128.5696 73° East 476 548 35,000  Level FlightAware Transoceanic
Wed 06:53:00 AM 31.1855 -128.4223 73° East 476 548 35,000  Level FlightAware Transoceanic
Wed 06:54:00 AM 31.2246 -128.2749 73° East 476 548 35,000  Level FlightAware Transoceanic
Wed 06:55:00 AM 31.2636 -128.1275 73° East 476 548 35,000  Level FlightAware Transoceanic
Wed 06:56:00 AM 31.3023 -127.9798 73° East 476 548 35,000  Level FlightAware Transoceanic
Wed 06:57:00 AM 31.3409 -127.8321 73° East 476 548 35,000  Level FlightAware Transoceanic
Wed 06:58:00 AM 31.3794 -127.6842 73° East 476 548 35,000  Level FlightAware Transoceanic
Wed 06:59:00 AM 31.4176 -127.5362 73° East 476 548 35,000  Level FlightAware Transoceanic
Wed 07:00:00 AM 31.4557 -127.3882 73° East 476 548 35,000  Level FlightAware Transoceanic
Wed 07:01:00 AM 31.4937 -127.2399 73° East 476 548 35,000  Level FlightAware Transoceanic
Wed 07:02:00 AM 31.5314 -127.0916 73° East 476 548 35,000  Level FlightAware Transoceanic
Wed 07:03:00 AM 31.5690 -126.9431 73° East 476 548 35,000  Level FlightAware Transoceanic
Wed 07:04:00 AM 31.6064 -126.7945 74° East 476 548 35,000  Level FlightAware Transoceanic
Wed 07:05:00 AM 31.6437 -126.6459 74° East 476 548 35,000  Level FlightAware Transoceanic
Wed 07:06:00 AM 31.6807 -126.4970 74° East 476 548 35,000  Level FlightAware Transoceanic
Wed 07:07:00 AM 31.7176 -126.3481 74° East 476 548 35,000  Level FlightAware Transoceanic
Wed 07:08:00 AM 31.7543 -126.1990 74° East 476 548 35,000  Level FlightAware Transoceanic
Wed 07:09:00 AM 31.7909 -126.0499 74° East 476 548 35,000  Level FlightAware Transoceanic
Wed 07:10:00 AM 31.8272 -125.9006 74° East 476 548 35,000  Level FlightAware Transoceanic
Wed 07:11:00 AM 31.8634 -125.7512 74° East 476 548 35,000  Level FlightAware Transoceanic
Wed 07:12:00 AM 31.8995 -125.6016 74° East 476 548 35,000  Level FlightAware Transoceanic
Wed 07:13:00 AM 31.9353 -125.4520 74° East 476 548 35,000  Level FlightAware Transoceanic
Wed 07:14:00 AM 31.9710 -125.3022 74° East 476 548 35,000  Level FlightAware Transoceanic
Wed 07:15:00 AM 32.0065 -125.1524 74° East 476 548 35,000  Level FlightAware Transoceanic
Wed 07:16:00 AM 32.0418 -125.0024 75° East 476 548 35,000  Level FlightAware Transoceanic
Wed 07:17:00 AM 32.0770 -124.8523 75° East 476 548 35,000  Level FlightAware Transoceanic
Wed 07:18:00 AM 32.1119 -124.7020 75° East 476 548 35,000  Level FlightAware Transoceanic
Wed 07:19:00 AM 32.1467 -124.5517 75° East 476 548 35,000  Level FlightAware Transoceanic
Wed 07:20:00 AM 32.1813 -124.4012 75° East 476 548 35,000  Level FlightAware Transoceanic
Wed 07:21:00 AM 32.2158 -124.2507 75° East 476 548 35,000  Level FlightAware Transoceanic
Wed 07:22:00 AM 32.2500 -124.1000 77° East 476 548 35,000  Level FlightAware Transoceanic
Wed 07:23:00 AM 32.2815 -123.9432 77° East 476 548 35,000 -78 Level FlightAware Transoceanic
Wed 07:23:17 AM 32.2339 -124.0381 77° East 470 541 34,900  Descending Los Angeles Center
Wed 07:24:00 AM 32.3129 -123.7862 77° East 476 548 35,000 100 Climbing FlightAware Transoceanic
Wed 07:24:17 AM 32.2683 -123.8906 75° East 469 540 35,000  Level Los Angeles Center
Wed 07:25:00 AM 32.3440 -123.6292 77° East 476 548 35,000  Level FlightAware Transoceanic
Wed 07:25:17 AM 32.3003 -123.7406 76° East 470 541 35,000  Level Los Angeles Center
Wed 07:26:00 AM 32.3750 -123.4721 77° East 476 548 35,000  Level FlightAware Transoceanic
Wed 07:26:17 AM 32.3344 -123.5911 75° East 471 542 35,000  Level Los Angeles Center
Wed 07:27:00 AM 32.4057 -123.3148 77° East 476 548 35,000  Level FlightAware Transoceanic
Wed 07:27:18 AM 32.3697 -123.4450 74° East 468 539 35,000  Level Los Angeles Center
Wed 07:28:00 AM 32.4363 -123.1575 77° East 476 548 35,000  Level FlightAware Transoceanic
Wed 07:28:18 AM 32.4019 -123.2936 76° East 471 542 35,000 -77 Level Los Angeles Center
Wed 07:29:18 AM 32.4375 -123.1433 74° East 475 547 34,900  Descending Los Angeles Center
Wed 07:30:19 AM 32.4714 -122.9900 75° East 477 549 35,000 50 Climbing Los Angeles Center
Wed 07:31:19 AM 32.5033 -122.8364 76° East 480 552 35,000  Level Los Angeles Center
Wed 07:32:19 AM 32.5383 -122.6867 74° East 477 549 35,000 -50 Level Los Angeles Center
Wed 07:33:19 AM 32.5708 -122.5322 76° East 480 552 34,900  Descending Los Angeles Center
Wed 07:34:20 AM 32.6033 -122.3789 76° East 481 554 35,000  Climbing Los Angeles Center
Wed 07:35:20 AM 32.6367 -122.2231 76° East 485 558 34,900 -50 Descending Los Angeles Center
Wed 07:36:20 AM 32.6703 -122.0692 75° East 485 558 34,900  Level Los Angeles Center
Wed 07:37:20 AM 32.7072 -121.9247 73° East 471 542 34,900 50 Level Los Angeles Center
Wed 07:38:21 AM 32.7397 -121.7706 76° East 479 551 35,000 50 Climbing Los Angeles Center
Wed 07:39:21 AM 32.7722 -121.6133 76° East 490 564 35,000  Level Los Angeles Center
Wed 07:40:21 AM 32.8042 -121.4592 76° East 483 556 35,000  Level Los Angeles Center
Wed 07:41:22 AM 32.8344 -121.3031 77° East 484 557 35,000  Level Los Angeles Center
Wed 07:42:22 AM 32.8647 -121.1458 77° East 489 563 35,000  Level Los Angeles Center
Wed 07:43:22 AM 32.8964 -120.9900 76° East 487 560 35,000  Level Los Angeles Center
Wed 07:44:22 AM 32.9283 -120.8314 76° East 493 567 35,000  Level Los Angeles Center
Wed 07:45:23 AM 32.9592 -120.6714 77° East 498 573 35,000  Level Los Angeles Center
Wed 07:46:23 AM 32.9897 -120.5147 77° East 488 562 35,000 -50 Level Los Angeles Center
Wed 07:47:23 AM 33.0203 -120.3556 77° East 493 567 34,900  Descending Los Angeles Center
Wed 07:48:23 AM 33.0569 -120.1650 77° East 494 568 35,000 50 Climbing Los Angeles Center
Wed 07:49:24 AM 33.0869 -120.0081 77° East 494 568 35,000  Level Los Angeles Center
Wed 07:50:24 AM 33.1164 -119.8475 78° East 495 570 35,000  Level Los Angeles Center
Wed 07:51:24 AM 33.1461 -119.6867 78° East 497 572 35,000  Level Los Angeles Center
Wed 07:52:24 AM 33.1767 -119.5272 77° East 497 572 35,000  Level Los Angeles Center
Wed 07:53:24 AM 33.2061 -119.3661 78° East 497 572 35,000  Level Los Angeles Center
Wed 07:54:25 AM 33.2356 -119.2058 78° East 498 573 35,000  Level Los Angeles Center
Wed 07:55:25 AM 33.2658 -119.0453 77° East 498 573 35,000  Level Los Angeles Center
Wed 07:56:25 AM 33.2947 -118.8844 78° East 499 574 35,000  Level Los Angeles Center
Wed 07:57:25 AM 33.3219 -118.7236 79° East 499 574 35,000  Level Los Angeles Center
Wed 07:58:26 AM 33.3506 -118.5631 78° East 499 574 35,000  Level Los Angeles Center
Wed 07:59:26 AM 33.3756 -118.4017 79° East 499 574 35,000  Level Los Angeles Center
Wed 08:00:26 AM 33.3872 -118.2394 85° East 495 570 35,000  Level Los Angeles Center
Wed 08:01:26 AM 33.3994 -118.0767 85° East 496 571 35,000  Level Los Angeles Center
Wed 08:02:27 AM 33.4122 -117.9156 85° East 493 567 35,000  Level Los Angeles Center
Wed 08:03:27 AM 33.4236 -117.7536 85° East 493 567 35,000  Level Los Angeles Center
Wed 08:04:27 AM 33.4350 -117.5881 85° East 499 574 35,000  Level Los Angeles Center
Wed 08:05:27 AM 33.4414 -117.4231 87° East 500 575 35,000  Level Los Angeles Center
Wed 08:06:28 AM 33.4442 -117.2597 89° East 496 571 35,000  Level Los Angeles Center
Wed 08:07:28 AM 33.4461 -117.0969 89° East 492 566 35,000  Level Los Angeles Center
Wed 08:08:28 AM 33.4500 -116.9314 88° East 494 568 35,000  Level Los Angeles Center
Wed 08:09:28 AM 33.4522 -116.7667 89° East 494 568 35,000  Level Los Angeles Center
Wed 08:10:29 AM 33.4542 -116.6017 89° East 495 570 35,000  Level Los Angeles Center
Wed 08:11:29 AM 33.4556 -116.4364 89° East 495 570 35,000  Level Los Angeles Center
Wed 08:12:29 AM 33.4589 -116.2719 89° East 491 565 35,000  Level Los Angeles Center
Wed 08:13:29 AM 33.4608 -116.1064 89° East 494 568 35,000  Level Los Angeles Center
Wed 08:14:30 AM 33.4619 -115.9403 89° East 497 572 35,000  Level Los Angeles Center
Wed 08:15:30 AM 33.4631 -115.7764 89° East 493 567 35,000  Level Los Angeles Center
Wed 08:16:30 AM 33.4617 -115.6106 91° East 495 570 35,000 -50 Level Los Angeles Center
Wed 08:17:31 AM 33.4625 -115.4450 90° East 497 572 34,900  Descending Los Angeles Center
Wed 08:18:31 AM 33.4636 -115.2792 89° East 498 573 35,000 50 Climbing Los Angeles Center
Wed 08:19:31 AM 33.4636 -115.1133 90° East 498 573 35,000 -50 Level Los Angeles Center
Wed 08:20:31 AM 33.4639 -114.9494 90° East 493 567 34,900 -198 Descending Los Angeles Center
Wed 08:21:32 AM 33.4633 -114.7853 90° East 494 568 34,600 -1,339 Descending Los Angeles Center
Wed 08:22:32 AM 33.4636 -114.6206 90° East 494 568 32,200 -2,600 Descending Los Angeles Center
Wed 08:23:32 AM 33.4636 -114.4564 90° East 494 568 29,400 -2,684 Descending Los Angeles Center
Wed 08:24:26 AM 33.4667 -114.3000 89° East 490 564 27,100 -2,263 Descending Albuquerque Center
Wed 08:25:26 AM 33.4661 -114.1425 90° East 478 550 25,100 -1,339 Descending Albuquerque Center
Wed 08:26:27 AM 33.4497 -113.9978 98° East 449 517 24,400 -836 Descending Albuquerque Center
Wed 08:27:28 AM 33.4183 -113.8539 105° East 444 511 23,400 -893 Descending Albuquerque Center
Wed 08:28:28 AM 33.3908 -113.7103 103° East 443 510 22,600 -793 Descending Albuquerque Center
Wed 08:29:29 AM 33.3606 -113.5708 105° East 436 502 21,800 -942 Descending Albuquerque Center
Wed 08:30:29 AM 33.3322 -113.4294 103° East 436 502 20,700 -1,686 Descending Albuquerque Center
Wed 08:31:30 AM 33.3039 -113.2919 104° East 430 495 18,400 -1,869 Descending Albuquerque Center
Wed 08:32:31 AM 33.2775 -113.1600 103° East 416 479 16,900 -1,091 Descending Albuquerque Center
Wed 08:33:31 AM 33.2750 -113.0425 91° East 360 414 16,200 -397 Descending Albuquerque Center
Wed 08:34:32 AM 33.2778 -112.9292 88° East 343 395 16,100 -149 Descending Albuquerque Center
Wed 08:35:32 AM 33.2817 -112.8189 88° East 338 389 15,900 -645 Descending Albuquerque Center
Wed 08:36:33 AM 33.2825 -112.6900 90° East 331 381 14,800 -1,082 Descending Albuquerque Center
Wed 08:37:34 AM 33.2856 -112.5875 88° East 323 372 13,700 -1,091 Descending Albuquerque Center
Wed 08:38:34 AM 33.2889 -112.4925 88° East 295 339 12,600 -1,140 Descending Albuquerque Center
Wed 08:39:35 AM 33.2914 -112.3928 88° East 299 344 11,400 -1,033 Descending Albuquerque Center
Wed 08:40:36 AM 33.2969 -112.2936 86° East 300 345 10,500 -843 Descending Albuquerque Center
Wed 08:41:36 AM 33.3028 -112.1961 86° East 296 341 9,700 -744 Descending Albuquerque Center
Wed 08:42:37 AM 33.3108 -112.1033 84° East 285 328 9,000 -885 Descending Albuquerque Center
Wed 08:43:38 AM 33.3308 -112.0208 74° East 264 304 7,900 -1,041 Descending Albuquerque Center
Wed 08:44:38 AM 33.3469 -111.9431 76° East 244 281 6,900 -1,289 Descending Albuquerque Center
Wed 08:45:39 AM 33.3447 -111.8642 92° East 237 273 5,300 -934 Descending Albuquerque Center
Wed 08:46:40 AM 33.3439 -111.7856 91° East 237 273 5,000 -149 Descending Albuquerque Center
Wed 08:47:40 AM 33.3603 -111.7203 73° East 219 252 5,000 -99 Level Albuquerque Center
Wed 08:48:41 AM 33.4086 -111.7372 344° North 199 229 4,800 -197 Descending Albuquerque Center

Login

Don't have an account? Register now (free) for customized features, flight alerts, and more!